createdAt,value
2019-02-10T00:02:16.854Z,6.79
2019-02-10T00:04:44.881Z,6.76
2019-02-10T00:07:12.876Z,6.75
2019-02-10T00:09:41.374Z,6.78
2019-02-10T00:12:10.753Z,6.80
2019-02-10T00:14:38.883Z,6.85
2019-02-10T00:17:07.053Z,6.85
2019-02-10T00:19:35.308Z,6.89
2019-02-10T00:22:03.428Z,6.92
2019-02-10T00:24:31.510Z,6.90
2019-02-10T00:26:59.501Z,6.90
2019-02-10T00:29:27.544Z,6.90
2019-02-10T00:31:55.546Z,6.85
2019-02-10T00:34:23.502Z,6.91
2019-02-10T00:36:51.489Z,6.91
2019-02-10T00:39:19.482Z,6.91
2019-02-10T00:41:47.445Z,6.93
2019-02-10T00:44:16.517Z,7.18
2019-02-10T00:46:44.552Z,7.14
2019-02-10T00:49:13.007Z,7.25
2019-02-10T00:51:41.141Z,7.41
2019-02-10T00:54:09.122Z,7.53
2019-02-10T00:56:37.175Z,7.76
2019-02-10T00:59:05.647Z,7.67
2019-02-10T01:01:33.638Z,7.73
2019-02-10T01:04:01.925Z,7.79
2019-02-10T01:06:30.186Z,7.80
2019-02-10T01:08:58.401Z,7.74
2019-02-10T01:11:26.489Z,7.65
2019-02-10T01:13:54.766Z,7.49
2019-02-10T01:16:22.838Z,7.53
2019-02-10T01:19:08.284Z,7.56
2019-02-10T01:21:42.329Z,7.65
2019-02-10T01:24:10.310Z,7.78
2019-02-10T01:26:38.280Z,7.85
2019-02-10T01:29:06.516Z,7.87
2019-02-10T01:31:35.825Z,7.78
2019-02-10T01:34:03.896Z,7.83
2019-02-10T01:36:31.996Z,7.78
2019-02-10T01:39:00.075Z,7.69
2019-02-10T01:41:28.339Z,7.63
2019-02-10T01:43:56.584Z,7.61
2019-02-10T01:46:24.767Z,7.60
2019-02-10T01:48:53.073Z,7.55
2019-02-10T01:51:21.045Z,7.52
2019-02-10T01:53:50.037Z,7.46
2019-02-10T01:56:18.117Z,7.47
2019-02-10T01:58:46.141Z,7.53
2019-02-10T02:01:14.085Z,7.61
2019-02-10T02:03:42.050Z,7.63
2019-02-10T02:06:10.260Z,7.45
2019-02-10T02:08:38.606Z,7.41
2019-02-10T02:11:06.615Z,7.20
2019-02-10T02:13:36.422Z,7.03
2019-02-10T02:16:04.741Z,7.06
2019-02-10T02:18:32.703Z,6.93
2019-02-10T02:21:00.677Z,6.97
2019-02-10T02:23:28.797Z,6.92
2019-02-10T02:25:56.823Z,6.91
2019-02-10T02:28:24.997Z,6.96
2019-02-10T02:30:53.061Z,6.97
2019-02-10T02:33:21.151Z,7.02
2019-02-10T02:35:49.165Z,7.15
2019-02-10T02:38:17.080Z,7.29
2019-02-10T02:40:45.112Z,7.50
2019-02-10T02:43:13.143Z,7.72
2019-02-10T02:45:41.264Z,7.88
2019-02-10T02:48:09.240Z,7.85
2019-02-10T02:50:37.462Z,7.83
2019-02-10T02:53:05.956Z,8.00
2019-02-10T02:55:34.051Z,8.11
2019-02-10T02:58:02.044Z,8.05
2019-02-10T03:00:30.040Z,7.91
2019-02-10T03:02:58.052Z,7.99
2019-02-10T03:05:26.052Z,7.96
2019-02-10T03:07:55.444Z,7.96
2019-02-10T03:10:24.596Z,8.04
2019-02-10T03:12:53.822Z,8.12
2019-02-10T03:15:21.751Z,8.13
2019-02-10T03:17:49.723Z,8.16
2019-02-10T03:20:18.733Z,8.23
2019-02-10T03:22:46.711Z,8.23
2019-02-10T03:25:15.250Z,8.11
2019-02-10T03:27:43.200Z,8.22
2019-02-10T03:30:11.319Z,8.17
2019-02-10T03:32:39.361Z,8.28
2019-02-10T03:35:07.354Z,8.33
2019-02-10T03:37:35.492Z,8.28
2019-02-10T03:40:03.651Z,8.31
2019-02-10T03:42:31.603Z,8.30
2019-02-10T03:44:59.882Z,8.22
2019-02-10T03:47:27.995Z,8.18
2019-02-10T03:49:57.097Z,8.13
2019-02-10T03:52:25.169Z,8.13
2019-02-10T03:54:53.393Z,8.21
2019-02-10T03:57:21.405Z,8.28
2019-02-10T03:59:49.364Z,8.21
2019-02-10T04:02:17.380Z,8.43
2019-02-10T04:04:45.505Z,8.41
2019-02-10T04:07:13.617Z,8.54
2019-02-10T04:09:41.973Z,8.59
2019-02-10T04:12:10.113Z,8.52
2019-02-10T04:14:38.163Z,8.56
2019-02-10T04:17:06.099Z,8.50
2019-02-10T04:19:34.086Z,8.44
2019-02-10T04:22:02.118Z,8.24
2019-02-10T04:24:30.067Z,8.50
2019-02-10T04:26:58.052Z,8.40
2019-02-10T04:29:26.028Z,8.43
2019-02-10T04:31:54.227Z,8.46
2019-02-10T04:34:22.333Z,8.33
2019-02-10T04:36:50.267Z,8.30
2019-02-10T04:39:18.342Z,8.45
2019-02-10T04:41:46.326Z,8.43
2019-02-10T04:44:14.393Z,8.44
2019-02-10T04:46:42.427Z,8.42
2019-02-10T04:49:10.926Z,8.40
2019-02-10T04:51:38.931Z,8.44
2019-02-10T04:54:07.074Z,8.52
2019-02-10T04:56:35.130Z,8.55
2019-02-10T04:59:03.118Z,8.52
2019-02-10T05:01:31.092Z,8.48
2019-02-10T05:03:59.091Z,8.42
2019-02-10T05:06:27.030Z,8.34
2019-02-10T05:08:56.358Z,8.39
2019-02-10T05:11:24.506Z,8.35
2019-02-10T05:13:52.609Z,8.25
2019-02-10T05:16:20.599Z,8.25
2019-02-10T05:18:48.693Z,8.21
2019-02-10T05:21:18.526Z,8.24
2019-02-10T05:23:46.510Z,8.44
2019-02-10T05:26:14.549Z,8.41
2019-02-10T05:28:42.854Z,8.29
2019-02-10T05:31:10.858Z,8.22
2019-02-10T05:33:39.101Z,8.18
2019-02-10T05:36:07.103Z,8.16
2019-02-10T05:38:35.106Z,8.17
2019-02-10T05:41:03.059Z,8.23
2019-02-10T05:43:31.108Z,8.13
2019-02-10T05:45:59.129Z,8.14
2019-02-10T05:48:27.337Z,8.10
2019-02-10T05:50:55.461Z,8.08
2019-02-10T05:53:23.540Z,8.23
2019-02-10T05:55:51.917Z,8.14
2019-02-10T05:58:19.893Z,8.32
2019-02-10T06:00:48.225Z,8.38
2019-02-10T06:03:16.258Z,8.35
2019-02-10T06:05:44.302Z,8.35
2019-02-10T06:08:13.635Z,8.23
2019-02-10T06:10:42.405Z,8.31
2019-02-10T06:13:10.458Z,8.26
2019-02-10T06:15:38.530Z,8.19
2019-02-10T06:18:06.798Z,8.25
2019-02-10T06:20:34.774Z,8.26
2019-02-10T06:23:02.873Z,8.25
2019-02-10T06:25:30.821Z,8.23
2019-02-10T06:27:58.815Z,8.27
2019-02-10T06:30:26.959Z,8.30
2019-02-10T06:32:55.007Z,8.28
2019-02-10T06:35:22.990Z,8.23
2019-02-10T06:37:51.312Z,8.31
2019-02-10T06:40:19.452Z,8.36
2019-02-10T06:42:47.519Z,8.42
2019-02-10T06:45:15.498Z,8.35
2019-02-10T06:47:43.826Z,8.39
2019-02-10T06:50:11.756Z,8.50
2019-02-10T06:52:40.058Z,8.47
2019-02-10T06:55:12.221Z,8.49
2019-02-10T06:57:40.447Z,8.63
2019-02-10T07:00:30.587Z,8.57
2019-02-10T07:03:39.451Z,8.58
2019-02-10T07:06:07.978Z,8.57
2019-02-10T07:08:35.951Z,8.61
2019-02-10T07:11:03.938Z,8.67
2019-02-10T07:13:39.221Z,8.69
2019-02-10T07:16:54.072Z,8.67
2019-02-10T07:20:48.691Z,8.68
2019-02-10T07:23:56.202Z,8.75
2019-02-10T07:26:53.965Z,8.79
2019-02-10T07:30:27.238Z,8.82
2019-02-10T07:32:55.453Z,8.87
2019-02-10T07:36:14.962Z,9.08
2019-02-10T07:39:16.246Z,9.07
2019-02-10T07:42:46.803Z,9.13
2019-02-10T07:46:04.078Z,9.20
2019-02-10T07:49:16.950Z,9.45
2019-02-10T07:52:25.853Z,9.48
2019-02-10T07:55:10.661Z,9.54
2019-02-10T07:58:38.533Z,9.57
2019-02-10T08:01:57.240Z,9.66
2019-02-10T08:05:02.562Z,9.83
2019-02-10T08:08:46.556Z,9.89
2019-02-10T08:11:56.959Z,9.84
2019-02-10T08:14:54.655Z,9.83
2019-02-10T08:18:03.874Z,9.83
2019-02-10T08:21:25.535Z,9.92
2019-02-10T08:24:48.200Z,10.16
2019-02-10T08:28:09.046Z,10.37
2019-02-10T08:31:11.270Z,10.55
2019-02-10T08:34:07.842Z,10.88
2019-02-10T08:37:33.278Z,11.07
2019-02-10T08:41:12.660Z,11.13
2019-02-10T08:44:14.450Z,11.19
2019-02-10T08:47:14.119Z,11.25
2019-02-10T08:50:43.414Z,11.32
2019-02-10T08:53:23.663Z,11.35
2019-02-10T08:55:53.355Z,11.21
2019-02-10T08:58:21.976Z,10.99
2019-02-10T09:00:51.935Z,11.15
2019-02-10T09:03:20.193Z,11.21
2019-02-10T09:05:53.078Z,11.16
2019-02-10T09:08:21.940Z,11.15
2019-02-10T09:10:50.311Z,11.16
2019-02-10T09:13:18.514Z,11.24
2019-02-10T09:15:48.762Z,11.50
2019-02-10T09:18:17.646Z,11.47
2019-02-10T09:20:45.824Z,11.65
2019-02-10T09:23:13.846Z,11.61
2019-02-10T09:25:48.499Z,11.66
2019-02-10T09:28:21.217Z,11.68
2019-02-10T09:30:49.220Z,11.81
2019-02-10T09:33:17.559Z,11.62
2019-02-10T09:35:45.528Z,11.66
2019-02-10T09:38:13.563Z,11.80
2019-02-10T09:40:41.948Z,11.84
2019-02-10T09:43:10.199Z,12.02
2019-02-10T09:45:38.434Z,12.12
2019-02-10T09:48:06.953Z,12.32
2019-02-10T09:50:35.600Z,12.68
2019-02-10T09:53:04.042Z,13.06
2019-02-10T09:55:32.221Z,13.12
2019-02-10T09:58:00.298Z,13.09
2019-02-10T10:00:28.635Z,13.13
2019-02-10T10:02:56.844Z,13.04
2019-02-10T10:05:25.056Z,13.10
2019-02-10T10:07:53.023Z,13.52
2019-02-10T10:10:21.112Z,13.75
2019-02-10T10:12:49.333Z,13.88
2019-02-10T10:15:17.890Z,14.17
2019-02-10T10:17:58.695Z,14.22
2019-02-10T10:20:40.449Z,14.46
2019-02-10T10:23:09.032Z,14.67
2019-02-10T10:25:37.843Z,14.63
2019-02-10T10:28:07.034Z,14.59
2019-02-10T10:30:37.254Z,14.64
2019-02-10T10:33:05.780Z,14.75
2019-02-10T10:35:34.138Z,14.73
2019-02-10T10:38:02.585Z,14.90
2019-02-10T10:40:30.704Z,14.82
2019-02-10T10:42:58.743Z,14.66
2019-02-10T10:45:26.999Z,14.80
2019-02-10T10:47:55.050Z,14.92
2019-02-10T10:50:23.193Z,14.92
2019-02-10T10:52:51.292Z,14.87
2019-02-10T10:55:19.364Z,15.00
2019-02-10T10:57:48.370Z,14.91
2019-02-10T11:00:22.880Z,15.32
2019-02-10T11:02:56.394Z,15.23
2019-02-10T11:05:27.220Z,15.19
2019-02-10T11:07:56.196Z,15.08
2019-02-10T11:10:28.043Z,14.96
2019-02-10T11:12:56.396Z,14.86
2019-02-10T11:15:24.455Z,14.81
2019-02-10T11:17:52.691Z,14.88
2019-02-10T11:20:20.790Z,14.84
2019-02-10T11:22:49.926Z,14.78
2019-02-10T11:25:18.132Z,14.72
2019-02-10T11:27:46.195Z,14.96
2019-02-10T11:30:14.690Z,15.16
2019-02-10T11:32:42.780Z,15.32
2019-02-10T11:35:10.837Z,15.44
2019-02-10T11:37:38.991Z,15.80
2019-02-10T11:40:07.200Z,15.83
2019-02-10T11:42:35.382Z,16.23
2019-02-10T11:45:03.842Z,16.74
2019-02-10T11:47:31.911Z,16.68
2019-02-10T11:49:59.904Z,16.61
2019-02-10T11:52:28.131Z,16.58
2019-02-10T11:54:56.225Z,16.56
2019-02-10T11:57:24.267Z,15.95
2019-02-10T11:59:52.414Z,16.15
2019-02-10T12:02:20.615Z,16.33
2019-02-10T12:04:48.731Z,16.39
2019-02-10T12:07:16.928Z,16.67
2019-02-10T12:09:51.543Z,16.15
2019-02-10T12:12:14.904Z,16.15
2019-02-10T12:14:43.129Z,16.00
2019-02-10T12:17:11.234Z,15.78
2019-02-10T12:19:39.261Z,15.87
2019-02-10T12:22:07.526Z,16.11
2019-02-10T12:24:35.545Z,16.16
2019-02-10T12:27:03.547Z,16.11
2019-02-10T12:29:31.684Z,15.88
2019-02-10T12:31:59.782Z,15.72
2019-02-10T12:34:28.005Z,15.69
2019-02-10T12:36:57.717Z,15.89
2019-02-10T12:39:27.644Z,15.93
2019-02-10T12:41:55.675Z,15.84
2019-02-10T12:44:23.709Z,15.88
2019-02-10T12:46:51.693Z,15.66
2019-02-10T12:49:19.785Z,14.98
2019-02-10T12:51:48.166Z,14.84
2019-02-10T12:54:16.143Z,15.08
2019-02-10T12:56:44.091Z,15.10
2019-02-10T12:59:12.356Z,14.85
2019-02-10T13:01:40.464Z,14.48
2019-02-10T13:04:08.446Z,14.65
2019-02-10T13:06:36.429Z,14.59
2019-02-10T13:09:07.207Z,14.31
2019-02-10T13:11:35.209Z,14.04
2019-02-10T13:14:03.248Z,13.61
2019-02-10T13:16:31.416Z,13.31
2019-02-10T13:18:59.454Z,13.01
2019-02-10T13:21:27.457Z,12.37
2019-02-10T13:23:56.113Z,12.08
2019-02-10T13:26:24.382Z,11.72
2019-02-10T13:28:52.494Z,11.43
2019-02-10T13:31:22.189Z,11.36
2019-02-10T13:33:50.455Z,11.19
2019-02-10T13:36:20.715Z,11.02
2019-02-10T13:38:49.140Z,10.96
2019-02-10T13:41:17.375Z,10.81
2019-02-10T13:43:45.536Z,10.81
2019-02-10T13:46:13.866Z,10.77
2019-02-10T13:48:42.035Z,10.70
2019-02-10T13:51:10.536Z,10.57
2019-02-10T13:53:38.552Z,10.56
2019-02-10T13:56:06.574Z,10.51
2019-02-10T13:58:36.924Z,10.57
2019-02-10T14:01:05.204Z,10.61
2019-02-10T14:03:33.189Z,10.53
2019-02-10T14:06:01.179Z,10.54
2019-02-10T14:08:29.431Z,10.43
2019-02-10T14:10:57.793Z,10.44
2019-02-10T14:13:25.790Z,10.41
2019-02-10T14:15:54.245Z,10.30
2019-02-10T14:18:22.422Z,10.42
2019-02-10T14:20:50.503Z,10.33
2019-02-10T14:23:19.119Z,10.33
2019-02-10T14:25:47.421Z,10.27
2019-02-10T14:28:15.342Z,10.18
2019-02-10T14:30:43.909Z,10.21
2019-02-10T14:33:12.082Z,10.30
2019-02-10T14:35:40.164Z,10.20
2019-02-10T14:38:08.508Z,10.22
2019-02-10T14:40:36.527Z,10.20
2019-02-10T14:43:04.548Z,10.19
2019-02-10T14:45:32.616Z,10.14
2019-02-10T14:48:00.655Z,10.14
2019-02-10T14:50:29.047Z,10.18
2019-02-10T14:52:57.626Z,10.10
2019-02-10T14:55:25.751Z,9.99
2019-02-10T14:57:53.917Z,10.05
2019-02-10T15:00:23.913Z,10.10
2019-02-10T15:02:53.215Z,9.99
2019-02-10T15:05:21.473Z,9.98
2019-02-10T15:07:50.572Z,9.96
2019-02-10T15:10:18.784Z,9.99
2019-02-10T15:12:46.746Z,9.86
2019-02-10T15:15:15.091Z,9.85
2019-02-10T15:17:44.492Z,9.88
2019-02-10T15:20:14.022Z,9.87
2019-02-10T15:22:43.119Z,9.85
2019-02-10T15:25:12.588Z,9.71
2019-02-10T15:27:40.707Z,9.59
2019-02-10T15:30:11.741Z,9.66
2019-02-10T15:32:42.413Z,9.67
2019-02-10T15:35:11.581Z,9.47
2019-02-10T15:37:39.800Z,9.42
2019-02-10T15:40:08.056Z,9.37
2019-02-10T15:42:37.790Z,9.33
2019-02-10T15:45:06.948Z,9.30
2019-02-10T15:47:35.009Z,9.27
2019-02-10T15:50:03.872Z,9.30
2019-02-10T15:52:31.954Z,9.34
2019-02-10T15:55:00.206Z,9.30
2019-02-10T15:57:28.316Z,9.37
2019-02-10T15:59:56.565Z,9.37
2019-02-10T16:02:24.595Z,9.44
2019-02-10T16:04:52.675Z,9.43
2019-02-10T16:07:22.005Z,9.41
2019-02-10T16:09:50.310Z,9.35
2019-02-10T16:12:18.353Z,9.41
2019-02-10T16:14:46.395Z,9.35
2019-02-10T16:17:14.377Z,9.31
2019-02-10T16:19:42.782Z,9.22
2019-02-10T16:22:10.913Z,8.96
2019-02-10T16:24:39.438Z,8.50
2019-02-10T16:27:07.752Z,8.16
2019-02-10T16:29:35.958Z,7.82
2019-02-10T16:32:04.259Z,7.68
2019-02-10T16:34:32.248Z,7.73
2019-02-10T16:37:00.277Z,7.87
2019-02-10T16:39:28.258Z,7.93
2019-02-10T16:41:56.243Z,8.07
2019-02-10T16:44:24.326Z,8.16
2019-02-10T16:46:52.348Z,8.25
2019-02-10T16:49:20.335Z,8.35
2019-02-10T16:51:49.395Z,8.33
2019-02-10T16:54:17.599Z,8.38
2019-02-10T16:56:46.254Z,8.42
2019-02-10T16:59:14.430Z,8.33
2019-02-10T17:01:42.454Z,7.84
2019-02-10T17:04:10.866Z,7.62
2019-02-10T17:06:39.015Z,7.11
2019-02-10T17:09:07.118Z,6.81
2019-02-10T17:11:36.267Z,6.54
2019-02-10T17:14:04.528Z,6.35
2019-02-10T17:16:32.511Z,6.27
2019-02-10T17:19:00.563Z,6.28
2019-02-10T17:21:28.874Z,6.25
2019-02-10T17:23:56.851Z,6.30
2019-02-10T17:26:24.983Z,6.37
2019-02-10T17:28:53.253Z,6.37
2019-02-10T17:31:21.335Z,6.39
2019-02-10T17:33:50.004Z,6.30
2019-02-10T17:36:19.131Z,6.17
2019-02-10T17:38:47.210Z,6.10
2019-02-10T17:41:22.799Z,5.97
2019-02-10T17:43:50.739Z,5.72
2019-02-10T17:46:18.945Z,5.51
2019-02-10T17:48:47.045Z,5.44
2019-02-10T17:51:15.042Z,5.51
2019-02-10T17:53:43.289Z,5.55
2019-02-10T17:56:11.438Z,5.61
2019-02-10T17:58:39.713Z,5.70
2019-02-10T18:01:08.497Z,5.74
2019-02-10T18:03:36.572Z,5.73
2019-02-10T18:06:04.658Z,5.70
2019-02-10T18:08:32.849Z,5.71
2019-02-10T18:11:00.864Z,5.76
2019-02-10T18:13:29.080Z,5.78
2019-02-10T18:16:09.565Z,5.79
2019-02-10T18:18:56.014Z,5.84
2019-02-10T18:21:46.398Z,5.82
2019-02-10T18:24:23.450Z,5.84
2019-02-10T18:27:02.351Z,5.81
2019-02-10T18:29:45.164Z,5.83
2019-02-10T18:32:42.036Z,5.88
2019-02-10T18:35:16.561Z,5.95
2019-02-10T18:37:53.402Z,5.94
2019-02-10T18:40:29.672Z,5.92
2019-02-10T18:43:17.339Z,5.91
2019-02-10T18:45:53.844Z,5.87
2019-02-10T18:48:39.265Z,5.93
2019-02-10T18:51:20.697Z,5.91
2019-02-10T18:54:08.304Z,5.87
2019-02-10T18:56:52.705Z,5.85
2019-02-10T18:59:29.093Z,5.89
2019-02-10T19:02:20.899Z,5.93
2019-02-10T19:05:03.560Z,5.93
2019-02-10T19:07:54.188Z,5.95
2019-02-10T19:10:36.037Z,5.87
2019-02-10T19:13:22.429Z,5.89
2019-02-10T19:16:08.501Z,5.83
2019-02-10T19:19:02.113Z,5.84
2019-02-10T19:21:38.106Z,5.89
2019-02-10T19:24:28.662Z,5.89
2019-02-10T19:27:15.911Z,5.91
2019-02-10T19:30:09.649Z,5.93
2019-02-10T19:32:44.270Z,5.98
2019-02-10T19:35:32.490Z,5.97
2019-02-10T19:38:20.032Z,5.91
2019-02-10T19:41:10.970Z,5.95
2019-02-10T19:43:57.040Z,5.96
2019-02-10T19:46:35.243Z,5.95
2019-02-10T19:49:28.644Z,5.92
2019-02-10T19:52:14.923Z,5.93
2019-02-10T19:54:52.969Z,5.95
2019-02-10T19:57:39.349Z,6.07
2019-02-10T20:00:27.031Z,6.04
2019-02-10T20:03:05.212Z,6.10
2019-02-10T20:05:51.088Z,6.13
2019-02-10T20:08:37.141Z,6.16
2019-02-10T20:11:23.464Z,6.23
2019-02-10T20:14:20.786Z,6.12
2019-02-10T20:17:05.059Z,6.18
2019-02-10T20:19:47.192Z,6.19
2019-02-10T20:22:37.739Z,6.26
2019-02-10T20:25:31.428Z,6.25
2019-02-10T20:28:37.412Z,6.27
2019-02-10T20:31:20.867Z,6.28
2019-02-10T20:33:58.001Z,6.26
2019-02-10T20:36:49.959Z,6.21
2019-02-10T20:39:24.515Z,6.05
2019-02-10T20:42:13.003Z,6.03
2019-02-10T20:45:01.248Z,5.85
2019-02-10T20:47:49.278Z,5.71
2019-02-10T20:50:26.643Z,5.54
2019-02-10T20:53:26.414Z,5.37
2019-02-10T20:56:12.227Z,5.32
2019-02-10T20:58:46.294Z,5.28
2019-02-10T21:01:32.616Z,5.27
2019-02-10T21:04:31.785Z,5.26
2019-02-10T21:07:17.777Z,5.12
2019-02-10T21:10:04.077Z,5.08
2019-02-10T21:12:54.635Z,4.87
2019-02-10T21:15:44.955Z,4.87
2019-02-10T21:18:35.762Z,4.73
2019-02-10T21:21:21.591Z,4.70
2019-02-10T21:24:12.245Z,4.76
2019-02-10T21:27:11.919Z,4.64
2019-02-10T21:30:02.334Z,4.54
2019-02-10T21:32:53.311Z,4.49
2019-02-10T21:35:30.623Z,4.43
2019-02-10T21:38:14.654Z,4.41
2019-02-10T21:41:08.049Z,4.29
2019-02-10T21:43:55.071Z,4.33
2019-02-10T21:46:32.826Z,4.44
2019-02-10T21:49:07.088Z,4.53
2019-02-10T21:51:35.287Z,4.64
2019-02-10T21:54:03.674Z,4.70
2019-02-10T21:56:31.756Z,4.67
2019-02-10T21:58:59.770Z,4.54
2019-02-10T22:01:27.887Z,4.66
2019-02-10T22:03:56.144Z,4.70
2019-02-10T22:06:24.171Z,4.77
2019-02-10T22:08:52.307Z,4.80
2019-02-10T22:11:20.613Z,4.96
2019-02-10T22:13:48.770Z,4.99
2019-02-10T22:16:16.778Z,5.03
2019-02-10T22:18:44.737Z,5.13
2019-02-10T22:21:12.873Z,5.26
2019-02-10T22:23:40.950Z,5.27
2019-02-10T22:26:09.205Z,5.25
2019-02-10T22:28:37.285Z,5.41
2019-02-10T22:31:05.409Z,5.40
2019-02-10T22:33:33.682Z,5.43
2019-02-10T22:36:01.674Z,5.49
2019-02-10T22:38:29.728Z,5.61
2019-02-10T22:40:57.696Z,5.66
2019-02-10T22:43:25.708Z,5.75
2019-02-10T22:45:54.091Z,5.78
2019-02-10T22:48:22.213Z,5.79
2019-02-10T22:50:50.228Z,5.80
2019-02-10T22:53:18.297Z,5.89
2019-02-10T22:55:46.272Z,5.88
2019-02-10T22:58:14.239Z,5.74
2019-02-10T23:00:56.474Z,5.80
2019-02-10T23:03:24.648Z,5.80
2019-02-10T23:05:52.659Z,5.83
2019-02-10T23:08:20.662Z,5.83
2019-02-10T23:10:48.719Z,5.84
2019-02-10T23:13:16.668Z,5.89
2019-02-10T23:15:44.693Z,5.92
2019-02-10T23:18:12.668Z,5.87
2019-02-10T23:20:41.692Z,5.83
2019-02-10T23:23:09.668Z,5.84
2019-02-10T23:25:38.172Z,5.78
2019-02-10T23:28:06.385Z,5.81
2019-02-10T23:30:34.329Z,5.90
2019-02-10T23:33:02.365Z,5.90
2019-02-10T23:35:30.365Z,5.92
2019-02-10T23:38:01.303Z,5.91
2019-02-10T23:40:29.366Z,5.85
2019-02-10T23:43:02.052Z,5.81
2019-02-10T23:45:27.513Z,5.81
2019-02-10T23:47:55.606Z,5.94
2019-02-10T23:50:23.685Z,5.79
2019-02-10T23:52:51.752Z,5.76
2019-02-10T23:55:19.937Z,5.77
2019-02-10T23:57:47.990Z,5.78
